Dogwood, Texas
Current Conditions -  °F | °C
As of 12:55 PM on Saturday 25 Oct 2014 (Local Time) from KJAS Reporting Station
Clear Clear  
Wind Chill: 77°   Ceiling: Unl
Heat Index: 78°   Visibility: 10mi
Dew Point: 56°   Wind: 3mph
Humidity: 48%   Direction: 260°W
Pressure: 30.18"   Gusts: NA
Location:  30.7643°N, 94.4448°W
Report Text: KJAS 251755Z AUTO 26003KT 10SM CLR 25/13 A3018 RMK AO2 T02490133
Loading
Personal Weather Stations






























Interactive Weather Map
Tropical Storm Tracking
New forecast layout! Learn more

10-Day Weather Forecast

Advertisements
Track Severe Weather on mobile